Time;durP1;ratioP1;P1;durP2;ratioP2;P2;SDS_P1;SDS_P2;PMS_P1;PMS_P2;Temp;Humidity;BMP_temperature;BMP_pressure;BME280_temperature;BME280_humidity;BME280_pressure;Samples;Min_cycle;Max_cycle;Signal;HPM_P1;HPM_P2
2021/09/27 00:01:40;;;;;;;5.05;1.30;;;18.60;63.80;;;;;;4993699;28;20022;-66
2021/09/27 00:04:08;;;;;;;1.70;0.93;;;18.70;61.60;;;;;;5010275;28;20025;-69
2021/09/27 00:06:35;;;;;;;2.15;1.15;;;18.70;64.70;;;;;;5010628;28;20054;-62
2021/09/27 00:09:03;;;;;;;2.28;1.17;;;18.70;64.50;;;;;;5010576;28;20479;-67
2021/09/27 00:11:31;;;;;;;1.15;0.93;;;18.70;63.50;;;;;;5011173;28;20071;-65
2021/09/27 00:14:01;;;;;;;4.38;1.20;;;18.80;61.40;;;;;;5010873;28;20026;-68
2021/09/27 00:16:30;;;;;;;2.47;1.00;;;18.80;64.20;;;;;;5010263;28;20022;-66
2021/09/27 00:18:59;;;;;;;2.45;1.27;;;18.80;61.50;;;;;;5010162;28;20098;-68
2021/09/27 00:21:30;;;;;;;3.67;1.27;;;18.80;63.40;;;;;;5010911;28;20428;-68
2021/09/27 00:23:59;;;;;;;1.85;0.93;;;18.90;61.60;;;;;;5011037;28;20384;-69
2021/09/27 00:26:29;;;;;;;2.15;1.10;;;18.90;61.40;;;;;;5010516;28;20067;-66
2021/09/27 00:28:57;;;;;;;2.67;1.10;;;18.90;62.20;;;;;;5010775;28;20102;-67
2021/09/27 00:31:24;;;;;;;1.70;1.05;;;18.80;62.20;;;;;;5011052;28;20469;-66
2021/09/27 00:33:52;;;;;;;2.47;1.15;;;18.80;61.90;;;;;;5010572;28;20022;-65
2021/09/27 00:36:19;;;;;;;3.35;1.17;;;18.80;62.00;;;;;;5010792;28;20101;-67
2021/09/27 00:38:47;;;;;;;2.75;1.25;;;18.80;61.10;;;;;;5010391;28;20026;-66
2021/09/27 00:41:19;;;;;;;2.33;1.20;;;18.80;61.40;;;;;;5011333;28;20026;-67
2021/09/27 00:43:48;;;;;;;4.13;1.33;;;18.80;61.60;;;;;;5010877;28;20389;-67
2021/09/27 00:46:23;;;;;;;4.03;1.20;;;18.70;63.60;;;;;;4993107;28;20103;-65
2021/09/27 00:48:50;;;;;;;2.15;1.00;;;18.70;62.80;;;;;;5009879;28;20491;-69
2021/09/27 00:51:25;;;;;;;3.25;0.93;;;18.70;61.90;;;;;;5010573;28;20123;-67
2021/09/27 00:54:19;;;;;;;2.78;1.30;;;18.70;62.00;;;;;;5010757;28;20030;-68
2021/09/27 00:56:54;;;;;;;1.13;0.68;;;18.70;63.10;;;;;;5010528;28;20041;-69
2021/09/27 00:59:25;;;;;;;1.83;0.95;;;18.70;64.40;;;;;;5011051;28;20044;-70
2021/09/27 01:01:53;;;;;;;1.58;0.80;;;18.70;63.50;;;;;;5010403;28;20477;-65
2021/09/27 01:04:21;;;;;;;3.00;1.17;;;18.70;63.30;;;;;;5010330;28;20017;-68
2021/09/27 01:07:06;;;;;;;3.33;1.05;;;18.70;61.20;;;;;;5010536;28;20030;-67
2021/09/27 01:09:46;;;;;;;1.58;0.88;;;18.70;62.20;;;;;;5010903;28;20045;-65
2021/09/27 01:12:27;;;;;;;2.08;0.90;;;18.70;63.30;;;;;;5010383;28;20034;-69
2021/09/27 01:15:18;;;;;;;4.45;1.40;;;18.70;63.40;;;;;;5010203;28;20080;-65
2021/09/27 01:18:14;;;;;;;8.80;1.45;;;18.80;62.30;;;;;;4992481;28;20380;-68
2021/09/27 01:21:08;;;;;;;1.27;0.90;;;18.90;62.10;;;;;;5010539;28;20114;-69
2021/09/27 01:23:57;;;;;;;1.27;0.88;;;19.00;63.00;;;;;;5010934;28;20581;-65
2021/09/27 01:27:09;;;;;;;1.33;0.82;;;19.00;63.80;;;;;;5009249;28;20120;-67
2021/09/27 01:30:03;;;;;;;3.87;1.20;;;19.10;62.30;;;;;;5005503;28;20482;-67
2021/09/27 01:32:48;;;;;;;2.47;1.20;;;19.20;61.60;;;;;;5009612;28;20022;-67
2021/09/27 01:35:36;;;;;;;4.28;0.68;;;19.30;61.80;;;;;;5009705;28;20033;-66
2021/09/27 01:38:24;;;;;;;4.18;0.88;;;19.30;61.70;;;;;;5009776;28;20033;-67
2021/09/27 01:41:13;;;;;;;2.50;0.63;;;19.40;62.40;;;;;;5009883;28;20101;-68
2021/09/27 01:43:57;;;;;;;2.25;1.00;;;19.40;61.90;;;;;;5009268;28;20368;-67
2021/09/27 01:46:34;;;;;;;2.17;0.90;;;19.50;62.10;;;;;;5010001;28;20079;-67
2021/09/27 01:49:40;;;;;;;4.43;0.95;;;19.50;61.80;;;;;;5009817;28;20022;-63
2021/09/27 01:52:32;;;;;;;2.05;0.88;;;19.60;61.90;;;;;;4992802;28;20077;-68
2021/09/27 01:55:28;;;;;;;3.30;0.90;;;19.60;60.70;;;;;;5009684;28;20053;-65
2021/09/27 01:58:17;;;;;;;1.35;0.70;;;19.70;61.40;;;;;;5008205;28;20071;-67
2021/09/27 02:00:49;;;;;;;2.58;0.90;;;19.80;60.60;;;;;;5010114;28;20411;-64
2021/09/27 02:03:32;;;;;;;2.38;0.90;;;19.80;61.20;;;;;;5009585;28;20030;-69
2021/09/27 02:06:16;;;;;;;3.45;1.00;;;19.80;60.70;;;;;;5005251;28;20498;-65
2021/09/27 02:09:06;;;;;;;1.30;0.55;;;19.80;60.00;;;;;;5009464;28;20026;-69
2021/09/27 02:11:40;;;;;;;4.10;1.20;;;19.70;60.40;;;;;;5009808;28;20026;-68
2021/09/27 02:14:31;;;;;;;1.40;0.80;;;19.70;61.10;;;;;;5009373;28;20151;-66
2021/09/27 02:17:31;;;;;;;2.65;0.77;;;19.60;60.50;;;;;;5008991;28;20049;-66
2021/09/27 02:20:05;;;;;;;3.80;0.88;;;19.60;62.30;;;;;;5028547;28;20049;-69
2021/09/27 02:22:51;;;;;;;1.45;0.70;;;19.60;61.20;;;;;;5009274;28;20030;-69
2021/09/27 02:25:20;;;;;;;1.50;0.80;;;19.70;60.90;;;;;;5009297;28;20500;-67
2021/09/27 02:28:21;;;;;;;3.17;0.90;;;19.70;61.80;;;;;;4995689;28;20034;-69
2021/09/27 02:31:12;;;;;;;2.38;0.70;;;19.70;61.30;;;;;;5001353;28;20030;-64
2021/09/27 02:34:05;;;;;;;2.03;0.88;;;19.80;61.80;;;;;;4996938;28;20051;-65
2021/09/27 02:36:54;;;;;;;2.38;0.90;;;19.90;61.60;;;;;;4996984;28;20106;-64
2021/09/27 02:40:06;;;;;;;1.92;0.80;;;19.90;60.60;;;;;;4998101;28;20038;-65
2021/09/27 02:42:47;;;;;;;1.50;0.45;;;19.90;60.60;;;;;;4987951;28;20552;-70
2021/09/27 02:45:24;;;;;;;2.83;0.98;;;19.90;61.10;;;;;;4980233;28;20377;-62
2021/09/27 02:48:32;;;;;;;1.92;0.63;;;19.90;60.70;;;;;;4980017;28;20033;-63
2021/09/27 02:51:00;;;;;;;2.33;0.73;;;19.90;60.90;;;;;;4975377;28;20640;-65
2021/09/27 02:53:28;;;;;;;1.73;0.70;;;19.90;61.30;;;;;;4998679;28;20113;-71
2021/09/27 02:56:13;;;;;;;1.83;0.68;;;20.00;61.20;;;;;;4999646;28;20025;-64
2021/09/27 02:59:17;;;;;;;2.25;0.90;;;20.00;60.80;;;;;;4999019;28;20060;-68
2021/09/27 03:02:13;;;;;;;1.38;0.60;;;20.00;61.70;;;;;;4994913;28;20116;-68
2021/09/27 03:05:20;;;;;;;3.90;0.95;;;19.90;61.70;;;;;;4998450;28;20022;-68
2021/09/27 03:08:33;;;;;;;2.15;0.52;;;20.00;61.20;;;;;;4982395;28;20189;-64
2021/09/27 03:11:06;;;;;;;2.10;0.90;;;20.00;60.60;;;;;;4994281;28;20497;-61
2021/09/27 03:14:02;;;;;;;0.93;0.70;;;20.00;60.80;;;;;;4998980;28;20140;-65
2021/09/27 03:16:32;;;;;;;2.38;0.75;;;20.00;61.60;;;;;;4984362;28;20045;-66
2021/09/27 03:19:35;;;;;;;2.03;0.68;;;19.90;61.90;;;;;;4998116;28;20568;-65
2021/09/27 03:22:33;;;;;;;4.38;0.93;;;19.90;61.40;;;;;;4958990;28;20116;-65
2021/09/27 03:25:41;;;;;;;2.33;0.85;;;19.90;61.50;;;;;;5000595;28;20022;-70
2021/09/27 03:28:42;;;;;;;1.77;0.57;;;19.90;61.90;;;;;;5000116;28;20183;-65
2021/09/27 03:31:21;;;;;;;1.95;0.60;;;19.90;60.40;;;;;;4996113;28;20032;-65
2021/09/27 03:34:13;;;;;;;0.98;0.52;;;19.90;61.20;;;;;;5000906;28;20510;-67
2021/09/27 03:37:03;;;;;;;2.10;0.85;;;19.90;61.80;;;;;;4999777;28;20152;-62
2021/09/27 03:40:06;;;;;;;2.67;0.80;;;19.80;62.30;;;;;;4999752;28;20045;-63
2021/09/27 03:43:07;;;;;;;3.42;0.70;;;19.80;61.70;;;;;;4994782;28;20049;-63
2021/09/27 03:45:47;;;;;;;2.15;0.80;;;19.80;60.60;;;;;;4999978;28;20120;-66
2021/09/27 03:49:04;;;;;;;3.10;1.45;;;19.70;62.20;;;;;;4999686;28;20022;-64
2021/09/27 03:51:44;;;;;;;4.15;0.93;;;19.70;60.60;;;;;;4992163;28;20050;-65
2021/09/27 03:54:35;;;;;;;4.43;1.00;;;19.70;61.10;;;;;;4999805;28;20388;-65
2021/09/27 03:57:21;;;;;;;3.67;0.82;;;19.70;61.60;;;;;;5007654;28;20042;-65
2021/09/27 04:00:10;;;;;;;2.30;0.70;;;19.80;61.20;;;;;;4998800;28;20037;-67
2021/09/27 04:02:41;;;;;;;;;;;19.70;61.20;;;;;;4994778;28;20133;-66
2021/09/27 04:05:14;;;;;;;3.47;1.35;;;19.70;62.50;;;;;;4997876;28;20058;-65
2021/09/27 04:08:06;;;;;;;1.83;0.70;;;19.60;62.90;;;;;;4979124;28;20487;-67
2021/09/27 04:10:48;;;;;;;;;;;19.60;62.20;;;;;;4977886;28;20549;-63
2021/09/27 04:13:17;;;;;;;6.93;0.82;;;19.60;63.30;;;;;;4995734;28;20265;-64
2021/09/27 04:16:09;;;;;;;5.20;1.00;;;19.60;63.00;;;;;;4999066;28;20022;-70
2021/09/27 04:19:03;;;;;;;1.55;0.70;;;19.60;62.20;;;;;;4998577;28;20037;-67
2021/09/27 04:21:58;;;;;;;2.13;0.93;;;19.60;62.20;;;;;;4992632;28;20141;-62
2021/09/27 04:24:57;;;;;;;7.63;0.70;;;19.60;62.60;;;;;;4982106;28;20056;-62
2021/09/27 04:27:53;;;;;;;2.28;0.57;;;19.60;63.00;;;;;;4998736;28;20030;-60
2021/09/27 04:30:21;;;;;;;2.08;0.80;;;19.60;62.50;;;;;;4997173;28;20038;-65
2021/09/27 04:33:36;;;;;;;2.33;0.77;;;19.60;61.80;;;;;;4974555;28;20113;-60
2021/09/27 04:36:49;;;;;;;3.75;1.20;;;19.60;63.10;;;;;;4900190;29;20501;-69
2021/09/27 04:40:06;;;;;;;1.27;0.80;;;19.60;63.00;;;;;;4928885;28;20575;-62
2021/09/27 04:42:57;;;;;;;1.65;0.90;;;19.60;62.90;;;;;;5003973;28;20095;-61
2021/09/27 04:46:18;;;;;;;;;;;;;;;;;;;;;
2021/09/27 04:53:28;;;;;;;4.97;1.42;;;19.60;62.50;;;;;;4994564;28;20398;-69
2021/09/27 04:56:19;;;;;;;5.88;1.55;;;19.60;62.70;;;;;;4998749;28;20022;-64
2021/09/27 04:59:02;;;;;;;3.10;1.45;;;19.50;62.60;;;;;;4996639;28;20030;-68
2021/09/27 05:01:47;;;;;;;;;;;19.50;64.00;;;;;;4990760;28;20037;-69
2021/09/27 05:04:24;;;;;;;4.55;1.63;;;19.50;63.80;;;;;;4996042;28;19912;-64
2021/09/27 05:07:20;;;;;;;6.63;2.00;;;19.50;64.10;;;;;;4995350;28;20045;-60
2021/09/27 05:10:17;;;;;;;2.30;1.55;;;19.50;64.50;;;;;;4994902;28;20030;-65
2021/09/27 05:13:01;;;;;;;4.68;1.75;;;19.50;65.50;;;;;;4998298;28;20033;-72
2021/09/27 05:16:00;;;;;;;4.72;1.60;;;19.50;65.00;;;;;;5009737;28;20100;-65
2021/09/27 05:18:56;;;;;;;3.60;1.73;;;19.50;64.20;;;;;;5010212;28;20358;-71
2021/09/27 05:21:35;;;;;;;7.53;2.03;;;19.50;64.40;;;;;;5010005;28;20140;-67
2021/09/27 05:24:33;;;;;;;3.65;1.63;;;19.40;65.60;;;;;;5010476;28;20056;-72
2021/09/27 05:27:18;;;;;;;2.30;1.30;;;19.40;65.10;;;;;;5010443;28;20078;-72
2021/09/27 05:30:03;;;;;;;4.85;1.58;;;19.40;65.20;;;;;;5010206;28;20018;-71
2021/09/27 05:32:53;;;;;;;3.78;1.20;;;19.40;65.30;;;;;;5009526;28;20030;-71
2021/09/27 05:35:41;;;;;;;2.63;1.27;;;19.40;65.50;;;;;;4991650;28;20029;-64
2021/09/27 05:38:25;;;;;;;3.53;1.50;;;19.30;64.90;;;;;;5009372;28;20068;-72
2021/09/27 05:41:09;;;;;;;2.88;1.20;;;19.30;65.70;;;;;;5009176;28;20137;-65
2021/09/27 05:43:57;;;;;;;3.40;1.10;;;19.30;65.70;;;;;;5009173;28;20029;-68
2021/09/27 05:46:49;;;;;;;3.05;1.30;;;19.30;65.90;;;;;;4993381;28;20022;-72
2021/09/27 05:49:25;;;;;;;3.88;2.15;;;19.20;65.40;;;;;;5010499;28;20492;-68
2021/09/27 05:52:21;;;;;;;4.25;1.50;;;19.20;66.50;;;;;;5010198;28;20050;-72
2021/09/27 05:55:20;;;;;;;4.15;1.65;;;19.20;64.70;;;;;;5009686;28;20127;-70
2021/09/27 05:57:58;;;;;;;3.92;1.23;;;19.30;65.40;;;;;;5009783;28;20025;-72
2021/09/27 06:00:30;;;;;;;3.58;1.40;;;19.30;64.70;;;;;;5009691;28;20037;-68
2021/09/27 06:03:34;;;;;;;5.70;1.20;;;19.30;64.40;;;;;;5013419;28;20442;-71
2021/09/27 06:06:39;;;;;;;4.00;1.48;;;19.30;65.10;;;;;;5014525;28;20083;-72
2021/09/27 06:09:48;;;;;;;4.03;1.40;;;19.30;64.30;;;;;;5013718;28;20154;-69
2021/09/27 06:12:34;;;;;;;3.78;1.30;;;19.30;65.20;;;;;;5011897;28;20033;-67
2021/09/27 06:15:05;;;;;;;2.15;1.20;;;19.20;65.00;;;;;;5012906;28;20105;-69
2021/09/27 06:17:54;;;;;;;4.25;1.20;;;19.30;65.10;;;;;;5012705;28;20034;-60
2021/09/27 06:20:34;;;;;;;5.00;1.10;;;19.30;61.60;;;;;;5008941;28;20049;-57
2021/09/27 06:23:16;;;;;;;2.35;1.42;;;19.20;60.60;;;;;;5013021;28;20548;-69
2021/09/27 06:25:43;;;;;;;;;;;19.20;63.10;;;;;;5013421;28;20030;-68
2021/09/27 06:28:26;;;;;;;5.85;1.70;;;19.20;63.10;;;;;;5012354;28;19959;-66
2021/09/27 06:30:56;;;;;;;;;;;19.20;63.00;;;;;;5013120;28;20034;-66
2021/09/27 06:33:32;;;;;;;9.00;1.05;;;19.20;63.70;;;;;;5012692;28;20181;-69
2021/09/27 06:36:12;;;;;;;2.20;1.08;;;19.20;63.90;;;;;;5013225;28;20029;-66
2021/09/27 06:38:40;;;;;;;3.33;1.63;;;19.10;64.60;;;;;;5012816;28;20499;-67
2021/09/27 06:41:16;;;;;;;4.90;1.48;;;19.10;64.80;;;;;;5012817;28;20037;-69
2021/09/27 06:43:44;;;;;;;2.03;1.00;;;19.10;64.70;;;;;;5013221;28;20048;-73
2021/09/27 06:46:12;;;;;;;5.45;1.15;;;19.10;64.30;;;;;;4995421;28;20416;-69
2021/09/27 06:48:40;;;;;;;6.07;1.58;;;19.10;65.40;;;;;;5012420;28;20030;-70
2021/09/27 06:51:07;;;;;;;2.45;1.55;;;19.10;64.90;;;;;;5012441;28;20388;-72
2021/09/27 06:53:35;;;;;;;7.03;1.40;;;19.10;65.10;;;;;;5012681;28;20033;-70
2021/09/27 06:56:03;;;;;;;2.60;1.00;;;19.00;65.20;;;;;;5012611;28;20049;-68
2021/09/27 06:58:32;;;;;;;1.63;0.90;;;19.10;65.30;;;;;;5012573;28;20109;-67
2021/09/27 07:00:59;;;;;;;6.07;1.40;;;19.00;65.00;;;;;;5012686;28;20349;-71
2021/09/27 07:03:27;;;;;;;2.78;1.15;;;19.00;65.70;;;;;;4978744;28;20026;-73
2021/09/27 07:05:54;;;;;;;3.22;1.02;;;19.00;65.80;;;;;;5012261;28;20078;-72
2021/09/27 07:08:23;;;;;;;2.88;1.00;;;19.00;65.50;;;;;;4994607;28;20022;-65
2021/09/27 07:10:53;;;;;;;7.18;1.30;;;18.90;65.70;;;;;;5012326;28;20030;-65
2021/09/27 07:13:21;;;;;;;2.55;1.10;;;18.90;65.60;;;;;;5011995;28;20026;-68
2021/09/27 07:15:48;;;;;;;6.05;1.35;;;18.90;66.00;;;;;;5012148;28;20438;-70
2021/09/27 07:18:16;;;;;;;2.38;1.00;;;18.90;66.10;;;;;;5012378;28;20391;-69
2021/09/27 07:20:44;;;;;;;2.75;1.85;;;18.90;66.10;;;;;;5012214;28;20033;-67
2021/09/27 07:23:12;;;;;;;2.22;1.05;;;18.80;65.90;;;;;;4994810;28;20014;-65
2021/09/27 07:25:39;;;;;;;3.42;1.35;;;18.80;66.20;;;;;;5012252;28;20029;-64
2021/09/27 07:28:06;;;;;;;1.77;0.88;;;18.80;66.40;;;;;;5012410;28;20022;-68
2021/09/27 07:30:35;;;;;;;1.05;0.70;;;18.70;66.30;;;;;;5011850;28;20105;-69
2021/09/27 07:33:03;;;;;;;5.30;1.23;;;18.70;66.50;;;;;;5012216;28;20083;-70
2021/09/27 07:35:31;;;;;;;3.88;0.90;;;18.70;66.70;;;;;;5011825;28;20018;-70
2021/09/27 07:37:59;;;;;;;2.70;0.90;;;18.70;66.60;;;;;;5011555;28;20098;-71
2021/09/27 07:40:31;;;;;;;1.52;0.85;;;18.70;67.20;;;;;;5011615;28;20378;-70
2021/09/27 07:42:58;;;;;;;2.60;1.10;;;18.60;66.90;;;;;;5011795;28;20516;-66
2021/09/27 07:45:27;;;;;;;2.95;1.20;;;18.60;67.20;;;;;;5011518;28;20104;-68
2021/09/27 07:47:55;;;;;;;3.88;1.42;;;18.60;67.40;;;;;;5012134;28;20018;-73
2021/09/27 07:50:22;;;;;;;2.63;1.05;;;18.60;67.30;;;;;;5011758;28;20064;-70
2021/09/27 07:52:51;;;;;;;1.85;0.95;;;18.60;67.20;;;;;;5011050;28;20473;-67
2021/09/27 07:55:19;;;;;;;5.10;1.08;;;18.60;67.20;;;;;;5011817;28;20022;-67
2021/09/27 07:57:46;;;;;;;2.42;1.35;;;18.50;67.40;;;;;;5096180;28;20034;-73
2021/09/27 08:00:15;;;;;;;2.05;0.90;;;18.50;67.50;;;;;;5011917;28;20069;-61
2021/09/27 08:02:46;;;;;;;3.00;0.90;;;18.50;68.20;;;;;;5011189;28;20018;-69
2021/09/27 08:05:21;;;;;;;1.73;0.80;;;18.40;67.70;;;;;;5013170;28;20061;-67
2021/09/27 08:07:48;;;;;;;2.10;0.98;;;18.40;67.80;;;;;;5013657;28;20496;-69
2021/09/27 08:10:17;;;;;;;4.20;1.00;;;18.40;67.70;;;;;;5013040;28;20065;-65
2021/09/27 08:12:45;;;;;;;4.43;1.05;;;18.30;67.70;;;;;;5007841;28;20380;-62
2021/09/27 08:15:26;;;;;;;2.80;0.85;;;18.30;67.80;;;;;;5011195;28;20030;-66
2021/09/27 08:17:54;;;;;;;2.08;1.00;;;18.40;68.00;;;;;;5011453;28;20030;-62
2021/09/27 08:20:28;;;;;;;3.03;1.23;;;18.30;68.10;;;;;;5011232;28;20034;-71
2021/09/27 08:22:56;;;;;;;2.15;0.80;;;18.30;68.10;;;;;;5010946;28;20030;-72
2021/09/27 08:25:25;;;;;;;2.10;1.02;;;18.30;69.00;;;;;;4992960;28;20033;-62
2021/09/27 08:27:56;;;;;;;;;;;18.30;68.30;;;;;;5011438;28;20048;-61
2021/09/27 08:30:29;;;;;;;2.40;0.90;;;18.20;68.40;;;;;;5011288;28;19906;-67
2021/09/27 08:32:58;;;;;;;2.80;1.00;;;18.20;68.50;;;;;;5012175;28;20026;-63
2021/09/27 08:35:26;;;;;;;3.08;1.05;;;18.20;68.50;;;;;;5010943;28;20025;-70
2021/09/27 08:37:54;;;;;;;3.15;1.27;;;18.20;68.50;;;;;;4994093;28;20071;-69
2021/09/27 08:40:47;;;;;;;2.92;0.85;;;18.20;68.50;;;;;;4993946;28;20029;-72
2021/09/27 08:43:37;;;;;;;2.75;0.98;;;18.20;68.60;;;;;;5011851;28;20023;-68
2021/09/27 08:46:21;;;;;;;3.08;1.10;;;18.20;68.70;;;;;;5010640;28;20037;-65
2021/09/27 08:48:57;;;;;;;5.28;1.30;;;18.20;68.80;;;;;;5011808;28;20030;-73
2021/09/27 08:51:26;;;;;;;2.75;1.00;;;18.10;68.80;;;;;;4994427;28;20057;-69
2021/09/27 08:53:54;;;;;;;2.10;0.73;;;18.10;68.80;;;;;;4995110;28;20471;-68
2021/09/27 08:56:33;;;;;;;2.33;1.08;;;18.10;68.80;;;;;;5011756;28;20086;-71
2021/09/27 08:59:03;;;;;;;3.38;1.15;;;18.10;68.90;;;;;;4993278;28;20026;-72
2021/09/27 09:01:45;;;;;;;1.67;0.90;;;18.10;69.00;;;;;;5010432;28;20119;-71
2021/09/27 09:04:44;;;;;;;4.03;1.23;;;18.10;68.90;;;;;;5010727;28;20029;-75
2021/09/27 09:07:17;;;;;;;2.78;0.80;;;18.00;68.90;;;;;;5011114;28;20034;-72
2021/09/27 09:10:04;;;;;;;2.85;0.93;;;18.00;69.00;;;;;;5011032;28;20024;-69
2021/09/27 09:12:45;;;;;;;2.22;0.93;;;18.00;69.00;;;;;;5010950;28;20029;-63
2021/09/27 09:15:28;;;;;;;4.00;1.13;;;18.00;69.00;;;;;;5010576;28;20452;-69
2021/09/27 09:18:06;;;;;;;2.83;0.88;;;18.00;69.00;;;;;;5010809;28;20034;-71
2021/09/27 09:20:59;;;;;;;3.15;1.23;;;18.00;69.10;;;;;;5010047;28;20037;-68
2021/09/27 09:23:34;;;;;;;3.75;1.00;;;18.00;69.10;;;;;;5010697;28;20026;-69
2021/09/27 09:26:05;;;;;;;3.30;1.15;;;17.90;69.00;;;;;;5010824;28;20022;-69
2021/09/27 09:28:34;;;;;;;2.47;0.93;;;18.00;69.10;;;;;;4993485;28;20026;-69
2021/09/27 09:31:12;;;;;;;3.90;0.85;;;17.90;69.00;;;;;;5010539;28;20090;-69
2021/09/27 09:33:47;;;;;;;4.47;1.27;;;17.90;69.00;;;;;;5010754;28;20068;-71
2021/09/27 09:36:21;;;;;;;2.42;0.80;;;17.90;69.10;;;;;;5008476;28;20029;-68
2021/09/27 09:38:49;;;;;;;2.78;0.90;;;17.90;69.10;;;;;;5009567;28;20030;-70
2021/09/27 09:41:17;;;;;;;5.13;1.02;;;17.90;69.10;;;;;;5010118;28;20022;-70
2021/09/27 09:43:48;;;;;;;2.40;1.00;;;17.90;69.70;;;;;;5010085;28;20018;-72
2021/09/27 09:46:34;;;;;;;2.33;1.10;;;17.90;69.20;;;;;;4976453;28;20384;-69
2021/09/27 09:49:11;;;;;;;2.80;1.00;;;17.90;69.20;;;;;;5009730;28;20032;-72
2021/09/27 09:51:57;;;;;;;2.65;0.90;;;17.90;69.20;;;;;;5009785;28;20492;-71
2021/09/27 09:54:27;;;;;;;2.50;1.30;;;17.90;69.10;;;;;;5010028;28;20492;-70
2021/09/27 09:57:16;;;;;;;2.60;0.88;;;17.90;69.10;;;;;;5010211;28;20071;-67
2021/09/27 09:59:57;;;;;;;2.83;0.95;;;17.90;69.00;;;;;;5010829;28;20034;-67
2021/09/27 10:02:26;;;;;;;1.92;0.90;;;17.90;69.00;;;;;;5010701;28;20106;-69
2021/09/27 10:05:08;;;;;;;3.17;0.88;;;17.80;69.00;;;;;;5011430;28;20033;-70
2021/09/27 10:07:52;;;;;;;1.40;0.75;;;17.80;69.10;;;;;;5011694;28;20026;-69
2021/09/27 10:10:42;;;;;;;2.63;0.80;;;17.90;69.10;;;;;;4994966;28;20030;-72
2021/09/27 10:13:55;;;;;;;1.27;0.50;;;17.80;69.10;;;;;;5011722;28;20026;-70
2021/09/27 10:17:06;;;;;;;3.17;0.82;;;17.80;69.10;;;;;;5011465;28;20044;-70
2021/09/27 10:19:42;;;;;;;2.22;0.60;;;17.80;69.10;;;;;;5007609;28;20058;-69
2021/09/27 10:22:13;;;;;;;2.10;0.85;;;17.80;69.80;;;;;;5010409;28;20030;-69
2021/09/27 10:24:47;;;;;;;2.60;1.00;;;17.80;69.30;;;;;;5010738;28;20022;-73
2021/09/27 10:27:23;;;;;;;5.35;1.20;;;17.80;69.30;;;;;;5010835;28;20029;-68
2021/09/27 10:29:52;;;;;;;2.55;1.13;;;17.80;69.30;;;;;;5010117;28;20037;-72
2021/09/27 10:32:23;;;;;;;3.45;0.88;;;17.80;69.50;;;;;;5011703;28;20381;-72
2021/09/27 10:34:52;;;;;;;2.95;1.08;;;17.80;69.60;;;;;;4993233;28;20026;-70
2021/09/27 10:37:23;;;;;;;4.53;1.10;;;17.80;69.60;;;;;;5010352;28;20018;-69
2021/09/27 10:39:55;;;;;;;5.20;1.20;;;17.80;69.60;;;;;;5010286;28;20034;-71
2021/09/27 10:42:39;;;;;;;3.65;0.88;;;17.80;69.70;;;;;;5011002;28;20057;-72
2021/09/27 10:45:08;;;;;;;1.77;0.73;;;17.80;69.80;;;;;;5010833;28;20061;-70
2021/09/27 10:47:44;;;;;;;3.28;0.90;;;17.80;69.90;;;;;;5012308;28;20022;-69
2021/09/27 10:50:15;;;;;;;2.17;0.90;;;17.80;70.00;;;;;;5013335;28;20026;-71
2021/09/27 10:52:52;;;;;;;1.08;0.60;;;17.80;70.10;;;;;;5013348;28;20079;-68
2021/09/27 10:55:27;;;;;;;2.97;0.80;;;17.70;70.10;;;;;;5014894;28;20057;-71
2021/09/27 10:57:59;;;;;;;3.17;1.17;;;17.70;70.20;;;;;;5013647;28;20022;-71
2021/09/27 11:00:33;;;;;;;1.95;0.80;;;17.70;70.20;;;;;;5012866;28;20030;-71
2021/09/27 11:03:38;;;;;;;3.65;1.35;;;17.70;70.60;;;;;;5013689;28;20033;-70
2021/09/27 11:06:35;;;;;;;7.22;0.90;;;17.70;70.50;;;;;;5012795;28;20049;-61
2021/09/27 11:09:05;;;;;;;3.30;0.95;;;17.80;70.40;;;;;;5012548;28;20426;-59
2021/09/27 11:11:33;;;;;;;1.00;0.52;;;17.70;70.40;;;;;;5012747;28;20026;-70
2021/09/27 11:14:21;;;;;;;1.92;0.88;;;17.70;70.40;;;;;;5006390;28;20102;-69
2021/09/27 11:17:07;;;;;;;2.10;0.70;;;17.70;70.70;;;;;;4996951;28;20041;-68
2021/09/27 11:19:37;;;;;;;4.88;0.93;;;17.70;71.10;;;;;;4995080;28;20095;-65
2021/09/27 11:22:32;;;;;;;3.50;1.05;;;17.70;70.90;;;;;;4983412;28;20040;-67
2021/09/27 11:25:37;;;;;;;2.00;0.93;;;17.80;71.20;;;;;;4997347;28;20038;-67
2021/09/27 11:28:25;;;;;;;2.08;0.98;;;17.70;70.80;;;;;;4996108;28;20041;-66
2021/09/27 11:31:32;;;;;;;2.30;1.25;;;17.70;70.80;;;;;;4996183;28;20751;-66
2021/09/27 11:34:30;;;;;;;3.05;1.00;;;17.70;70.60;;;;;;4976110;28;20057;-63
2021/09/27 11:37:30;;;;;;;3.25;1.05;;;17.70;70.70;;;;;;4997991;28;20034;-66
2021/09/27 11:40:30;;;;;;;2.00;0.77;;;17.70;70.60;;;;;;4996645;28;20061;-62
2021/09/27 11:43:23;;;;;;;1.67;0.80;;;17.80;70.70;;;;;;4992196;28;20049;-66
2021/09/27 11:45:55;;;;;;;2.33;0.88;;;17.80;70.60;;;;;;4994948;28;20415;-64
2021/09/27 11:48:43;;;;;;;3.17;0.80;;;17.80;70.60;;;;;;4996210;28;20038;-65
2021/09/27 11:51:20;;;;;;;1.90;0.80;;;17.80;70.50;;;;;;4999032;28;20112;-66
2021/09/27 11:53:53;;;;;;;2.65;0.80;;;17.80;70.70;;;;;;4994131;28;20958;-62
2021/09/27 11:56:58;;;;;;;4.25;1.00;;;17.80;70.70;;;;;;4998715;28;20040;-63
2021/09/27 12:00:01;;;;;;;2.53;0.88;;;17.80;70.90;;;;;;4997972;28;20048;-70
2021/09/27 12:03:00;;;;;;;3.67;0.90;;;17.80;70.70;;;;;;4998912;28;20033;-71
2021/09/27 12:05:51;;;;;;;2.05;0.82;;;17.80;71.00;;;;;;4999536;28;20029;-70
2021/09/27 12:08:48;;;;;;;4.72;0.90;;;17.80;70.70;;;;;;5000520;28;20022;-69
2021/09/27 12:11:17;;;;;;;3.95;0.90;;;17.80;70.90;;;;;;5001453;28;20034;-73
2021/09/27 12:13:45;;;;;;;4.55;0.70;;;17.80;70.80;;;;;;4995449;28;20026;-68
2021/09/27 12:16:26;;;;;;;2.42;0.90;;;17.80;70.80;;;;;;4998309;28;20045;-73
2021/09/27 12:18:55;;;;;;;2.78;1.05;;;17.80;70.70;;;;;;5000111;28;20255;-71
2021/09/27 12:21:31;;;;;;;2.42;0.95;;;17.90;70.80;;;;;;5001343;28;20114;-64
2021/09/27 12:24:15;;;;;;;2.13;0.75;;;17.90;70.60;;;;;;4992085;28;20022;-64
2021/09/27 12:27:04;;;;;;;2.92;0.93;;;17.90;70.60;;;;;;4997765;28;20108;-66
2021/09/27 12:29:32;;;;;;;7.10;1.20;;;17.90;70.50;;;;;;4996505;28;20022;-68
2021/09/27 12:32:08;;;;;;;2.03;0.80;;;17.90;70.60;;;;;;4998039;28;20112;-64
2021/09/27 12:34:39;;;;;;;3.15;0.75;;;17.90;70.40;;;;;;4992916;28;20030;-67
2021/09/27 12:37:12;;;;;;;2.92;1.00;;;17.90;70.50;;;;;;4999029;28;20026;-69
2021/09/27 12:39:41;;;;;;;2.47;0.80;;;17.90;70.30;;;;;;5008159;28;20041;-69
2021/09/27 12:42:16;;;;;;;3.13;0.77;;;17.90;70.40;;;;;;4990578;28;20034;-66
2021/09/27 12:45:02;;;;;;;3.05;1.08;;;17.90;70.30;;;;;;4991674;28;20032;-67
2021/09/27 12:47:30;;;;;;;2.45;1.00;;;17.90;70.10;;;;;;4974873;28;20088;-69
2021/09/27 12:50:07;;;;;;;1.80;0.70;;;17.90;70.20;;;;;;4991275;28;20030;-67
2021/09/27 12:52:48;;;;;;;2.20;0.70;;;17.90;70.20;;;;;;4990721;28;20047;-68
2021/09/27 12:55:20;;;;;;;1.15;0.65;;;17.90;70.20;;;;;;4973232;28;20032;-68
2021/09/27 12:57:53;;;;;;;3.88;0.93;;;17.90;70.20;;;;;;4991050;28;20022;-71
2021/09/27 13:00:38;;;;;;;1.60;0.90;;;17.90;70.30;;;;;;4991692;28;20038;-69
2021/09/27 13:03:09;;;;;;;1.00;0.68;;;17.90;70.30;;;;;;4991021;28;20019;-69
2021/09/27 13:05:52;;;;;;;3.30;1.08;;;17.90;70.30;;;;;;4973920;28;20034;-68
2021/09/27 13:08:46;;;;;;;3.15;1.05;;;17.90;70.40;;;;;;4985293;28;20029;-68
2021/09/27 13:11:33;;;;;;;2.13;0.88;;;17.90;70.60;;;;;;4997188;28;20062;-71
2021/09/27 13:14:15;;;;;;;3.20;1.15;;;17.80;70.80;;;;;;4996579;28;20556;-68
2021/09/27 13:16:45;;;;;;;3.63;0.85;;;17.80;71.30;;;;;;4999515;28;20025;-72
2021/09/27 13:19:34;;;;;;;1.70;0.73;;;17.80;71.20;;;;;;4997443;28;20135;-70
2021/09/27 13:22:02;;;;;;;2.85;0.75;;;17.80;71.10;;;;;;4997490;28;20044;-68
2021/09/27 13:24:30;;;;;;;2.42;0.80;;;17.70;71.10;;;;;;4994919;28;20045;-68
2021/09/27 13:27:10;;;;;;;2.47;0.95;;;17.70;71.20;;;;;;4997644;28;20497;-58
2021/09/27 13:29:41;;;;;;;2.65;1.08;;;17.70;71.30;;;;;;4996083;28;20040;-68
2021/09/27 13:32:11;;;;;;;2.90;0.90;;;17.70;71.30;;;;;;4977684;28;20125;-67
2021/09/27 13:34:44;;;;;;;3.00;0.80;;;17.70;71.40;;;;;;4993645;28;20037;-66
2021/09/27 13:37:36;;;;;;;2.83;0.80;;;17.70;71.50;;;;;;4998114;28;20038;-64
2021/09/27 13:40:22;;;;;;;3.08;1.40;;;17.70;71.50;;;;;;4997400;28;20035;-61
2021/09/27 13:43:02;;;;;;;1.77;0.90;;;17.70;71.60;;;;;;4996948;28;20109;-63
2021/09/27 13:45:34;;;;;;;2.83;0.85;;;17.60;71.40;;;;;;5008150;28;20018;-64
2021/09/27 13:48:02;;;;;;;4.07;1.10;;;17.60;71.40;;;;;;5009999;28;20022;-64
2021/09/27 13:50:29;;;;;;;2.10;1.00;;;17.60;71.30;;;;;;5009448;28;20072;-64
2021/09/27 13:53:05;;;;;;;1.35;0.60;;;17.60;71.30;;;;;;5009595;28;20034;-63
2021/09/27 13:55:33;;;;;;;2.28;0.80;;;17.60;71.30;;;;;;4999391;28;20083;-64
2021/09/27 13:58:01;;;;;;;5.00;1.15;;;17.60;71.20;;;;;;4996953;28;20022;-65
2021/09/27 14:00:28;;;;;;;3.60;1.05;;;17.50;71.10;;;;;;4994303;28;20656;-64
2021/09/27 14:02:56;;;;;;;3.30;0.85;;;17.50;71.10;;;;;;4995769;28;20048;-66
2021/09/27 14:05:23;;;;;;;2.55;0.90;;;17.50;71.10;;;;;;4974382;28;20034;-68